createdAt,value
2022-12-22T00:02:08.176Z,20.52
2022-12-22T00:05:30.397Z,20.98
2022-12-22T00:08:47.615Z,23.35
2022-12-22T00:12:07.775Z,20.33
2022-12-22T00:15:30.028Z,19.60
2022-12-22T00:18:47.459Z,18.88
2022-12-22T00:22:04.757Z,20.40
2022-12-22T00:25:22.883Z,21.95
2022-12-22T00:28:43.960Z,20.23
2022-12-22T00:32:01.650Z,16.73
2022-12-22T00:35:19.317Z,15.20
2022-12-22T00:38:37.229Z,14.80
2022-12-22T00:41:54.484Z,18.00
2022-12-22T00:45:14.335Z,11.32
2022-12-22T00:48:37.712Z,14.32
2022-12-22T00:51:55.057Z,16.10
2022-12-22T00:55:12.753Z,13.02
2022-12-22T00:58:32.720Z,12.68
2022-12-22T01:01:52.780Z,17.63
2022-12-22T01:05:10.103Z,14.20
2022-12-22T01:08:27.796Z,11.88
2022-12-22T01:11:45.302Z,14.10
2022-12-22T01:15:02.664Z,13.20
2022-12-22T01:18:22.631Z,16.75
2022-12-22T01:21:40.079Z,11.55
2022-12-22T01:24:57.438Z,9.68
2022-12-22T01:28:14.644Z,11.55
2022-12-22T01:31:34.214Z,10.45
2022-12-22T01:34:54.199Z,10.40
2022-12-22T01:38:11.552Z,10.05
2022-12-22T01:41:33.307Z,11.57
2022-12-22T01:44:50.462Z,8.55
2022-12-22T01:48:07.656Z,9.30
2022-12-22T01:51:30.457Z,11.70
2022-12-22T01:54:47.839Z,8.93
2022-12-22T01:58:05.175Z,9.07
2022-12-22T02:01:22.548Z,7.47
2022-12-22T02:04:43.128Z,13.05
2022-12-22T02:08:24.381Z,8.82
2022-12-22T02:11:55.774Z,9.77
2022-12-22T02:15:21.443Z,8.07
2022-12-22T02:18:44.162Z,7.30
2022-12-22T02:22:12.572Z,8.63
2022-12-22T02:25:36.199Z,9.20
2022-12-22T02:28:56.709Z,7.90
2022-12-22T02:32:14.036Z,7.25
2022-12-22T02:35:32.422Z,8.85
2022-12-22T02:38:56.988Z,10.90
2022-12-22T02:42:25.890Z,7.35
2022-12-22T02:45:52.327Z,10.25
2022-12-22T02:49:17.034Z,7.07
2022-12-22T02:52:39.837Z,14.90
2022-12-22T02:55:57.102Z,9.13
2022-12-22T02:59:14.346Z,9.65
2022-12-22T03:02:34.275Z,8.25
2022-12-22T03:05:51.583Z,9.55
2022-12-22T03:09:08.742Z,9.35
2022-12-22T03:12:25.878Z,8.82
2022-12-22T03:15:43.260Z,10.23
2022-12-22T03:19:03.125Z,7.85
2022-12-22T03:22:20.308Z,10.50
2022-12-22T03:25:37.534Z,9.80
2022-12-22T03:28:42.308Z,9.48
2022-12-22T03:31:47.182Z,10.25
2022-12-22T03:34:54.985Z,9.90
2022-12-22T03:38:03.654Z,10.68
2022-12-22T03:41:29.107Z,8.63
2022-12-22T03:44:46.380Z,5.47
2022-12-22T03:47:51.146Z,4.72
2022-12-22T03:50:58.597Z,5.70
2022-12-22T03:54:03.692Z,9.70
2022-12-22T03:57:08.416Z,4.65
2022-12-22T04:00:14.209Z,5.75
2022-12-22T04:03:19.137Z,3.80
2022-12-22T04:06:26.799Z,4.25
2022-12-22T04:09:31.597Z,5.00
2022-12-22T04:12:49.465Z,5.10
2022-12-22T04:15:54.340Z,5.88
2022-12-22T04:18:59.467Z,4.03
2022-12-22T04:22:07.450Z,3.05
2022-12-22T04:25:13.237Z,2.67
2022-12-22T04:28:18.116Z,2.15
2022-12-22T04:31:23.671Z,3.97
2022-12-22T04:34:28.497Z,5.75
2022-12-22T04:37:35.963Z,5.28
2022-12-22T04:40:40.797Z,4.65
2022-12-22T04:43:45.644Z,4.50
2022-12-22T04:46:50.424Z,3.88
2022-12-22T04:49:55.886Z,4.18
2022-12-22T04:53:03.217Z,3.05
2022-12-22T04:56:10.760Z,5.60
2022-12-22T04:59:15.652Z,4.03
2022-12-22T05:02:20.694Z,2.58
2022-12-22T05:05:25.549Z,3.17
2022-12-22T05:08:33.950Z,1.70
2022-12-22T05:11:38.726Z,3.88
2022-12-22T05:14:43.490Z,2.78
2022-12-22T05:17:48.305Z,2.42
2022-12-22T05:20:53.181Z,3.67
2022-12-22T05:24:00.580Z,2.28
2022-12-22T05:27:05.354Z,2.63
2022-12-22T05:30:11.949Z,4.20
2022-12-22T05:33:16.687Z,6.15
2022-12-22T05:36:22.034Z,1.73
2022-12-22T05:39:29.407Z,4.85
2022-12-22T05:42:40.471Z,4.85
2022-12-22T05:45:45.742Z,2.28
2022-12-22T05:48:50.535Z,2.45
2022-12-22T05:51:56.103Z,3.30
2022-12-22T05:55:03.670Z,3.13
2022-12-22T05:58:08.576Z,3.58
2022-12-22T06:01:13.537Z,4.10
2022-12-22T06:04:18.572Z,6.20
2022-12-22T06:07:23.478Z,3.00
2022-12-22T06:10:30.843Z,5.68
2022-12-22T06:13:35.834Z,7.10
2022-12-22T06:16:40.699Z,3.75
2022-12-22T06:19:48.341Z,3.15
2022-12-22T06:22:53.159Z,2.33
2022-12-22T06:26:02.918Z,3.85
2022-12-22T06:29:07.655Z,2.95
2022-12-22T06:32:12.396Z,2.90
2022-12-22T06:35:17.577Z,2.92
2022-12-22T06:38:22.320Z,3.05
2022-12-22T06:41:44.965Z,3.30
2022-12-22T06:44:50.807Z,6.57
2022-12-22T06:47:55.592Z,4.38
2022-12-22T06:51:01.543Z,2.85
2022-12-22T06:54:06.757Z,3.15
2022-12-22T06:57:14.150Z,3.30
2022-12-22T07:00:19.458Z,2.50
2022-12-22T07:03:24.295Z,4.68
2022-12-22T07:06:29.187Z,1.48
2022-12-22T07:09:34.027Z,3.28
2022-12-22T07:12:41.538Z,4.38
2022-12-22T07:15:46.310Z,3.95
2022-12-22T07:18:51.086Z,2.70
2022-12-22T07:21:55.867Z,3.13
2022-12-22T07:25:00.697Z,8.45
2022-12-22T07:28:13.646Z,3.13
2022-12-22T07:31:21.818Z,3.30
2022-12-22T07:34:26.624Z,4.85
2022-12-22T07:37:31.386Z,4.85
2022-12-22T07:40:41.502Z,15.43
2022-12-22T07:43:46.937Z,7.68
2022-12-22T07:46:51.736Z,5.38
2022-12-22T07:50:20.699Z,6.65
2022-12-22T07:53:25.523Z,6.05
2022-12-22T07:56:30.349Z,5.07
2022-12-22T07:59:37.836Z,10.23
2022-12-22T08:02:42.952Z,13.90
2022-12-22T08:05:50.317Z,9.82
2022-12-22T08:08:55.522Z,6.03
2022-12-22T08:12:00.367Z,9.43
2022-12-22T08:15:09.221Z,4.13
2022-12-22T08:18:14.085Z,3.53
2022-12-22T08:21:19.051Z,6.03
2022-12-22T08:24:23.970Z,6.32
2022-12-22T08:27:38.354Z,3.83
2022-12-22T08:30:45.875Z,7.75
2022-12-22T08:33:51.471Z,15.00
2022-12-22T08:37:00.129Z,3.13
2022-12-22T08:40:09.962Z,5.93
2022-12-22T08:43:15.332Z,6.68
2022-12-22T08:46:22.743Z,6.40
2022-12-22T08:49:28.178Z,9.02
2022-12-22T08:52:33.672Z,11.93
2022-12-22T08:55:38.540Z,7.00
2022-12-22T08:58:43.328Z,10.27
2022-12-22T09:01:51.308Z,7.75
2022-12-22T09:04:56.319Z,11.38
2022-12-22T09:08:02.836Z,6.05
2022-12-22T09:11:07.856Z,8.68
2022-12-22T09:14:14.171Z,7.88
2022-12-22T09:17:22.020Z,9.40
2022-12-22T09:20:26.826Z,9.63
2022-12-22T09:23:34.114Z,10.38
2022-12-22T09:26:39.139Z,5.25
2022-12-22T09:29:44.702Z,7.22
2022-12-22T09:32:52.209Z,9.77
2022-12-22T09:35:56.937Z,9.02
2022-12-22T09:39:02.328Z,7.43
2022-12-22T09:42:07.565Z,4.32
2022-12-22T09:45:20.379Z,9.25
2022-12-22T09:48:32.609Z,10.00
2022-12-22T09:51:44.561Z,9.38
2022-12-22T09:54:49.399Z,8.27
2022-12-22T09:57:54.474Z,14.52
2022-12-22T10:01:10.279Z,6.28
2022-12-22T10:04:25.655Z,12.00
2022-12-22T10:07:35.567Z,13.25
2022-12-22T10:10:40.607Z,13.88
2022-12-22T10:13:46.606Z,5.65
2022-12-22T10:16:51.504Z,9.23
2022-12-22T10:20:11.819Z,8.02
2022-12-22T10:23:20.732Z,16.50
2022-12-22T10:26:30.418Z,8.18
2022-12-22T10:29:37.252Z,6.53
2022-12-22T10:32:41.977Z,6.50
2022-12-22T10:35:53.011Z,6.72
2022-12-22T10:39:05.448Z,11.07
2022-12-22T10:42:13.828Z,12.25
2022-12-22T10:45:23.794Z,10.05
2022-12-22T10:48:30.906Z,11.55
2022-12-22T10:51:38.440Z,10.35
2022-12-22T10:54:45.051Z,10.27
2022-12-22T10:57:49.923Z,9.00
2022-12-22T11:01:05.929Z,6.13
2022-12-22T11:04:29.968Z,14.75
2022-12-22T11:07:39.304Z,6.88
2022-12-22T11:10:50.556Z,6.75
2022-12-22T11:14:02.392Z,6.57
2022-12-22T11:17:15.721Z,10.77
2022-12-22T11:20:37.655Z,4.00
2022-12-22T11:23:56.633Z,3.10
2022-12-22T11:27:25.885Z,5.72
2022-12-22T11:30:42.230Z,4.20
2022-12-22T11:33:59.909Z,4.70
2022-12-22T11:37:15.072Z,4.13
2022-12-22T11:40:35.110Z,4.50
2022-12-22T11:43:58.234Z,1.98
2022-12-22T11:47:07.529Z,5.10
2022-12-22T11:51:01.978Z,3.38
2022-12-22T11:54:23.277Z,3.05
2022-12-22T11:57:34.990Z,2.72
2022-12-22T12:01:13.088Z,3.10
2022-12-22T12:04:16.618Z,2.88
2022-12-22T12:07:26.282Z,2.05
2022-12-22T12:10:32.081Z,3.80
2022-12-22T12:13:42.753Z,2.55
2022-12-22T12:16:52.222Z,1.75
2022-12-22T12:20:04.318Z,3.58
2022-12-22T12:23:21.918Z,1.85
2022-12-22T12:26:28.658Z,3.85
2022-12-22T12:29:38.906Z,14.38
2022-12-22T12:32:46.739Z,1.65
2022-12-22T12:35:56.576Z,2.85
2022-12-22T12:39:09.096Z,1.80
2022-12-22T12:42:20.643Z,3.40
2022-12-22T12:45:41.387Z,1.58
2022-12-22T12:48:45.930Z,1.35
2022-12-22T12:51:52.187Z,1.23
2022-12-22T12:55:20.673Z,4.05
2022-12-22T12:58:43.034Z,1.80
2022-12-22T13:01:57.356Z,3.13
2022-12-22T13:05:14.515Z,1.00
2022-12-22T13:08:20.782Z,1.67
2022-12-22T13:15:00.582Z,2.53
2022-12-22T13:18:05.908Z,3.63
2022-12-22T13:24:48.832Z,1.55
2022-12-22T13:27:54.111Z,1.98
2022-12-22T13:31:02.383Z,1.63
2022-12-22T13:34:10.022Z,1.58
2022-12-22T13:37:24.623Z,6.07
2022-12-22T13:40:31.174Z,1.50
2022-12-22T13:43:36.523Z,3.80
2022-12-22T13:46:41.417Z,1.45
2022-12-22T13:50:07.659Z,2.35
2022-12-22T13:53:42.253Z,1.90
2022-12-22T13:56:43.612Z,4.40
2022-12-22T13:59:51.925Z,1.60
2022-12-22T14:02:56.624Z,3.38
2022-12-22T14:06:01.217Z,3.05
2022-12-22T14:09:19.525Z,2.17
2022-12-22T14:12:25.526Z,1.67
2022-12-22T14:15:30.122Z,3.58
2022-12-22T14:18:37.041Z,3.13
2022-12-22T14:21:41.605Z,4.38
2022-12-22T14:24:54.603Z,1.65
2022-12-22T14:27:59.983Z,2.63
2022-12-22T14:31:06.002Z,2.20
2022-12-22T14:34:25.568Z,2.60
2022-12-22T14:37:32.886Z,3.40
2022-12-22T14:40:41.510Z,1.95
2022-12-22T14:43:46.015Z,3.97
2022-12-22T14:47:04.545Z,2.28
2022-12-22T14:50:18.223Z,3.88
2022-12-22T14:53:25.591Z,2.53
2022-12-22T14:56:33.155Z,4.30
2022-12-22T14:59:37.788Z,4.40
2022-12-22T15:02:43.261Z,3.88
2022-12-22T15:05:47.903Z,3.63
2022-12-22T15:08:53.312Z,1.92
2022-12-22T15:12:07.217Z,3.45
2022-12-22T15:15:16.430Z,1.40
2022-12-22T15:18:22.248Z,3.90
2022-12-22T15:21:26.881Z,2.35
2022-12-22T15:24:32.225Z,2.55
2022-12-22T15:27:39.392Z,4.13
2022-12-22T15:30:44.400Z,3.50
2022-12-22T15:33:48.948Z,3.60
2022-12-22T15:36:54.207Z,3.95
2022-12-22T15:39:58.833Z,4.53
2022-12-22T15:43:09.976Z,3.90
2022-12-22T15:46:22.450Z,5.40
2022-12-22T15:49:28.364Z,3.08
2022-12-22T15:52:34.392Z,3.42
2022-12-22T15:55:40.408Z,3.97
2022-12-22T15:58:47.625Z,3.40
2022-12-22T16:02:00.340Z,4.63
2022-12-22T16:05:06.075Z,3.08
2022-12-22T16:08:18.109Z,3.15
2022-12-22T16:11:23.381Z,3.67
2022-12-22T16:14:36.826Z,5.32
2022-12-22T16:17:43.879Z,3.83
2022-12-22T16:20:50.216Z,4.72
2022-12-22T16:23:55.791Z,3.88
2022-12-22T16:27:00.876Z,3.78
2022-12-22T16:30:08.593Z,6.25
2022-12-22T16:33:13.892Z,5.13
2022-12-22T16:36:18.865Z,7.78
2022-12-22T16:39:23.314Z,4.88
2022-12-22T16:45:49.402Z,8.77
2022-12-22T16:48:55.866Z,10.18
2022-12-22T16:52:01.696Z,5.05
2022-12-22T16:55:08.808Z,7.85
2022-12-22T16:58:14.582Z,6.97
2022-12-22T17:01:28.202Z,11.02
2022-12-22T17:04:33.816Z,7.07
2022-12-22T17:07:38.253Z,8.75
2022-12-22T17:10:42.796Z,11.88
2022-12-22T17:13:47.381Z,11.90
2022-12-22T17:16:54.560Z,8.45
2022-12-22T17:19:59.030Z,7.70
2022-12-22T17:23:05.000Z,9.98
2022-12-22T17:26:10.579Z,6.13
2022-12-22T17:29:17.239Z,5.15
2022-12-22T17:32:24.922Z,10.98
2022-12-22T17:35:33.312Z,7.95
2022-12-22T17:38:37.920Z,5.15
2022-12-22T17:41:42.455Z,7.30
2022-12-22T17:44:47.206Z,10.52
2022-12-22T17:47:54.396Z,7.97
2022-12-22T17:50:59.007Z,6.15
2022-12-22T17:54:03.579Z,11.68
2022-12-22T17:57:13.383Z,13.35
2022-12-22T18:00:23.029Z,7.72
2022-12-22T18:03:30.447Z,11.95
2022-12-22T18:06:37.357Z,9.85
2022-12-22T18:09:41.962Z,12.23
2022-12-22T18:12:47.357Z,14.60
2022-12-22T18:15:52.097Z,10.23
2022-12-22T18:18:59.340Z,9.68
2022-12-22T18:22:03.822Z,11.77
2022-12-22T18:25:14.106Z,15.65
2022-12-22T18:28:19.432Z,14.90
2022-12-22T18:31:24.614Z,13.93
2022-12-22T18:34:31.926Z,16.65
2022-12-22T18:37:36.469Z,12.38
2022-12-22T18:40:41.948Z,20.75
2022-12-22T18:43:46.442Z,20.75
2022-12-22T18:46:51.485Z,23.13
2022-12-22T18:50:03.274Z,16.83
2022-12-22T18:53:10.497Z,15.35
2022-12-22T18:56:15.640Z,23.48
2022-12-22T18:59:25.307Z,21.38
2022-12-22T19:02:31.199Z,19.50
2022-12-22T19:05:40.872Z,28.50
2022-12-22T19:08:47.358Z,22.95
2022-12-22T19:11:52.052Z,32.40
2022-12-22T19:14:58.183Z,26.77
2022-12-22T19:18:02.622Z,33.17
2022-12-22T19:21:12.205Z,27.92
2022-12-22T19:24:16.691Z,22.60
2022-12-22T19:27:22.535Z,24.88
2022-12-22T19:30:28.154Z,27.42
2022-12-22T19:33:37.213Z,34.50
2022-12-22T19:36:44.268Z,30.27
2022-12-22T19:39:49.325Z,26.20
2022-12-22T19:42:55.298Z,32.40
2022-12-22T19:46:00.306Z,23.00
2022-12-22T19:49:04.936Z,31.70
2022-12-22T19:52:12.392Z,23.77
2022-12-22T19:55:17.027Z,39.88
2022-12-22T19:58:22.842Z,33.35
2022-12-22T20:01:27.590Z,38.95
2022-12-22T20:04:32.198Z,38.80
2022-12-22T20:07:39.715Z,43.70
2022-12-22T20:10:44.970Z,34.08
2022-12-22T20:13:49.895Z,38.80
2022-12-22T20:16:54.600Z,34.42
2022-12-22T20:19:59.146Z,33.88
2022-12-22T20:23:09.198Z,29.83
2022-12-22T20:26:17.184Z,31.13
2022-12-22T20:29:21.656Z,26.40
2022-12-22T20:32:28.364Z,34.50
2022-12-22T20:35:33.386Z,32.78
2022-12-22T20:38:41.418Z,25.55
2022-12-22T20:41:52.534Z,24.10
2022-12-22T20:45:03.716Z,30.25
2022-12-22T20:48:09.271Z,27.42
2022-12-22T20:51:16.097Z,35.42
2022-12-22T20:54:23.169Z,29.67
2022-12-22T20:57:28.761Z,27.40
2022-12-22T21:00:33.229Z,30.20
2022-12-22T21:03:37.730Z,28.10
2022-12-22T21:06:46.018Z,24.83
2022-12-22T21:09:53.139Z,31.60
2022-12-22T21:13:00.548Z,37.85
2022-12-22T21:16:05.089Z,29.83
2022-12-22T21:19:09.588Z,36.25
2022-12-22T21:22:14.045Z,35.42
2022-12-22T21:25:21.335Z,26.30
2022-12-22T21:28:33.310Z,22.10
2022-12-22T21:31:37.838Z,24.75
2022-12-22T21:34:42.259Z,24.17
2022-12-22T21:37:48.015Z,28.30
2022-12-22T21:40:55.438Z,26.30
2022-12-22T21:43:59.943Z,23.98
2022-12-22T21:47:05.170Z,28.45
2022-12-22T21:50:10.747Z,24.30
2022-12-22T21:53:21.731Z,18.23
2022-12-22T21:56:29.756Z,22.65
2022-12-22T21:59:34.192Z,25.88
2022-12-22T22:02:38.790Z,24.17
2022-12-22T22:05:43.420Z,19.05
2022-12-22T22:08:47.846Z,28.77
2022-12-22T22:12:07.386Z,23.33
2022-12-22T22:15:13.162Z,25.77
2022-12-22T22:18:18.341Z,20.15
2022-12-22T22:21:22.816Z,20.38
2022-12-22T22:24:27.248Z,16.65
2022-12-22T22:27:34.339Z,20.85
2022-12-22T22:30:38.785Z,24.52
2022-12-22T22:33:43.298Z,17.52
2022-12-22T22:36:47.767Z,20.40
2022-12-22T22:39:52.357Z,26.15
2022-12-22T22:42:59.741Z,15.88
2022-12-22T22:46:04.294Z,22.92
2022-12-22T22:49:08.808Z,15.70
2022-12-22T22:52:13.339Z,25.13
2022-12-22T22:55:18.355Z,17.92
2022-12-22T22:58:25.451Z,25.10
2022-12-22T23:01:30.497Z,13.07
2022-12-22T23:04:35.027Z,17.17
2022-12-22T23:07:40.859Z,12.32
2022-12-22T23:10:49.843Z,13.60
2022-12-22T23:13:59.284Z,13.88
2022-12-22T23:17:03.785Z,14.93
2022-12-22T23:20:09.195Z,19.02
2022-12-22T23:23:13.671Z,19.50
2022-12-22T23:26:18.321Z,13.27
2022-12-22T23:29:25.433Z,9.13
2022-12-22T23:32:29.860Z,17.60
2022-12-22T23:35:34.400Z,10.98
2022-12-22T23:38:39.031Z,12.80
2022-12-22T23:41:43.504Z,7.57
2022-12-22T23:44:50.950Z,15.60
2022-12-22T23:47:55.398Z,11.70
2022-12-22T23:50:59.866Z,14.27
2022-12-22T23:54:04.438Z,12.30
2022-12-22T23:57:08.898Z,17.55
